** WINDWAARNEMINGEN GEBEUREN SINDS 9-01-2018 OP 9 - 10M HOOGTE**
Het weer levert geen direct gevaar op.    Er zijn geen waarschuwingen afgegeven.

Weercam te Izegem Meer informatie Weercam te Izegem


Lokaal brand risico:
FWI


Regionaal brand risico: Meer informatie



METAR rapporten vliegvelden

   
EBOS - Oostende Airport, Belgium
Afstand tot: NW 39 km
Gewijzigd: 25-06-2018 11:20
Grotendeels bewolkt  
Grotendeels bewolkt  
   Wind: Noorden 11.1 km/h
Wind: Noorden 11.1 km/h
Temperatuur: 16°C
Dauwpunt: 12°C
Vochtigheid: 77%
Barometer: 1027 hPa
Bewolking: Mostly Cloudy
Zicht: meer dan 10 km
Bewolking: Grotendeels bewolkt 1000 ft
EBOS 250920Z 01006KT 330V040 9999 BKN010 16/12 Q1027 BECMG SCT015
LFQQ - Lille/Lesquin, France
Afstand tot: Z 40 km
Gewijzigd: 25-06-2018 11:30
Grotendeels bewolkt  
Grotendeels bewolkt  
   Wind: NNO 11.1 km/h
Wind: NNO 11.1 km/h
Temperatuur: 18°C
Dauwpunt: 12°C
Vochtigheid: 68%
Barometer: 1026 hPa
Bewolking: Mostly Cloudy
Zicht: meer dan 10 km
Bewolking: Grotendeels bewolkt 2000 ft,
Grotendeels bewolkt 2600 ft,
Grotendeels bewolkt 21000 ft
LFQQ 250930Z AUTO 03006KT 340V080 9999 BKN020 BKN026 BKN210 18/12 Q1026 NOSIG
EBFN - Koksijde (bel-Af, Belgium
Afstand tot: WNW 43 km
Gewijzigd: 25-06-2018 11:25
Grotendeels bewolkt  
Grotendeels bewolkt  
   Wind: NO 9.3 km/h
Wind: NO 9.3 km/h
Temperatuur: 17°C
Dauwpunt: 13°C
Vochtigheid: 77%
Barometer: 1027 hPa
Bewolking: Mostly Cloudy
Zicht: meer dan 10 km
Bewolking: Grotendeels bewolkt 1200 ft,
Grotendeels bewolkt 3000 ft
EBFN 250925Z 05005KT 9999 BKN012 BKN030 17/13 Q1027 GRN GRN BECMG WHT
EBCV - Chievres Ab, Belgium
Afstand tot: ZO 59 km
Gewijzigd: 25-06-2018 11:25
Grotendeels bewolkt  
Grotendeels bewolkt  
   Wind: Noorden 9.3 km/h
Wind: Noorden 9.3 km/h
Temperatuur: 18°C
Dauwpunt: 12°C
Vochtigheid: 68%
Barometer: 1026 hPa
Bewolking: Mostly Cloudy
Zicht: meer dan 10 km
Bewolking: Grotendeels bewolkt 1900 ft
EBCV 250925Z AUTO 01005KT 9999 BKN019/// 18/12 Q1026 WHT
EHFS - Vlissingen, Netherlands
Afstand tot: NNO 65 km
Gewijzigd: 25-06-2018 11:25
Bewolking  
Bewolking  
   Wind: Noorden 9.3 km/h
Wind: Noorden 9.3 km/h
Temperatuur: 17°C
Dauwpunt: 13°C
Vochtigheid: 77%
Barometer: 1026 hPa
Bewolking: Overcast
Zicht: meer dan 10 km
Bewolking: Bewolking 1000 ft
EHFS 250925Z AUTO 01005KT 310V070 9999 OVC010/// 17/13 Q1026 W///H///
EBBR - Brussels Nationa, Belgium
Afstand tot: O 91 km
Gewijzigd: 25-06-2018 11:20
Grotendeels bewolkt  
Grotendeels bewolkt  
   Wind: Noorden 5.6 km/h
Wind: Noorden 5.6 km/h
Temperatuur: 17°C
Dauwpunt: 12°C
Vochtigheid: 73%
Barometer: 1026 hPa
Bewolking: Mostly Cloudy
Zicht: meer dan 10 km
Bewolking: Grotendeels bewolkt 2400 ft
EBBR 250920Z 36003KT 280V050 9999 BKN024 17/12 Q1026 NOSIG
EBAW - Antwerp/Deurne, Belgium
Afstand tot: ONO 94 km
Gewijzigd: 25-06-2018 11:20
Gedeeltelijk bewolkt  
Gedeeltelijk bewolkt  
   Wind: NNW 7.4 km/h
Wind: NNW 7.4 km/h
Temperatuur: 20°C
Dauwpunt: 12°C
Vochtigheid: 60%
Barometer: 1026 hPa
Bewolking: Partly Cloudy
Zicht: meer dan 10 km
Bewolking: Gedeeltelijk bewolkt 2400 ft
EBAW 250920Z 34004KT 260V040 9999 SCT024 20/12 Q1026 NOSIG
EHWO - Woensdrecht Rnla, Netherlands
Afstand tot: NO 98 km
Gewijzigd: 25-06-2018 11:25
Grotendeels bewolkt  
Grotendeels bewolkt  
   Wind: varieert 11.1 km/h
Wind: varieert 11.1 km/h
Temperatuur: 18°C
Dauwpunt: 13°C
Vochtigheid: 73%
Barometer: 1026 hPa
Bewolking: Mostly Cloudy
Zicht: meer dan 10 km
Bewolking: Grotendeels bewolkt 1600 ft,
Grotendeels bewolkt 1900 ft
EHWO 250925Z AUTO VRB06KT 9999 BKN016 BKN019 18/13 Q1026 WHT 34006KT 9999 BKN018 BECMG SCT030
EBCI - Charleroi/Gossel, Belgium
Afstand tot: OZO 102 km
Gewijzigd: 25-06-2018 11:20
Grotendeels bewolkt  
Grotendeels bewolkt  
   Wind: NO 11.1 km/h
Wind: NO 11.1 km/h
Temperatuur: 16°C
Dauwpunt: 12°C
Vochtigheid: 77%
Barometer: 1026 hPa
Bewolking: Mostly Cloudy
Zicht: meer dan 10 km
Bewolking: Licht bewolkt 1400 ft,
Grotendeels bewolkt 1700 ft
EBCI 250920Z 04006KT 360V080 9999 FEW014 BKN017 16/12 Q1026 NOSIG

Script ontwikkeld door  Saratoga-weather.org Aangepast voor de template door  Weerstation Leuven